Saltar para o conteúdo principal

Covilhã (Aeródromo)

ID 1210687 · 40.2643, -7.4823 mapa

Última leitura · 2026-05-09 18:00 (Europe/Lisbon)

Temperatura
11.9 °C
Humidade
87 %
Pressão
Precipitação
Radiação
273 W/m²
Velocidade do vento
7.9 km/h
Direcção do vento
S · Sul

Histórico de 24 horas

Hora (Europe/Lisbon) Temperatura Humidade Pressão Chuva Vento Direcção
2026-05-09 18:00 11.9 °C 87 % 7.9 km/h S
2026-05-09 17:00 12.7 °C 88 % 7.2 km/h SW
2026-05-09 16:00 12.4 °C 87 % 9.0 km/h N
2026-05-09 15:00 12.1 °C 93 % 9.4 km/h E
2026-05-09 14:00 11.7 °C 97 % 5.0 km/h SE
2026-05-09 13:00 12.1 °C 95 % 5.8 km/h S
2026-05-09 12:00 11.4 °C 95 % 3.6 km/h SW
2026-05-09 11:00 10.9 °C 92 % 5.8 km/h S
2026-05-09 10:00 11.8 °C 85 % 16.2 km/h S
2026-05-09 09:00 13.2 °C 74 % 16.6 km/h SE
2026-05-09 08:00 12.2 °C 76 % 13.7 km/h S
2026-05-09 07:00 11.9 °C 81 % 13.0 km/h S
2026-05-09 06:00 11.8 °C 86 % 5.0 km/h S
2026-05-09 05:00 11.6 °C 89 % 2.2 km/h W
2026-05-09 04:00 11.8 °C 88 % 3.6 km/h SW
2026-05-09 03:00 12.3 °C 84 % 10.1 km/h S
2026-05-09 02:00 12.7 °C 79 % 8.6 km/h S
2026-05-09 01:00 13.5 °C 72 % 14.8 km/h SW
2026-05-09 00:00 13.4 °C 71 % 8.3 km/h SW
2026-05-08 23:00 13.9 °C 67 % 6.8 km/h S
2026-05-08 22:00 14.5 °C 62 % 4.7 km/h N
2026-05-08 21:00 15.4 °C 56 % 2.5 km/h N
2026-05-08 20:00 16.3 °C 51 % 1.8 km/h N
2026-05-08 19:00 16.9 °C 48 % 5.8 km/h SE